Time;durP1;ratioP1;P1;durP2;ratioP2;P2;SDS_P1;SDS_P2;PMS_P1;PMS_P2;Temp;Humidity;BMP_temperature;BMP_pressure;BME280_temperature;BME280_humidity;BME280_pressure;Samples;Min_cycle;Max_cycle;Signal;HPM_P1;HPM_P2
2023/03/19 00:00:15;;;;;;;5.32;1.70;;;;;;;;;;4953757;29;20202;-63
2023/03/19 00:02:40;;;;;;;4.05;1.40;;;;;;;;;;4954431;29;20689;-63
2023/03/19 00:05:05;;;;;;;2.97;1.50;;;;;;;;;;4952981;29;20598;-63
2023/03/19 00:07:31;;;;;;;3.22;1.27;;;;;;;;;;4954254;29;20218;-63
2023/03/19 00:09:56;;;;;;;2.47;1.40;;;;;;;;;;4936823;29;20207;-63
2023/03/19 00:12:22;;;;;;;2.28;1.15;;;;;;;;;;4952809;29;20211;-63
2023/03/19 00:14:47;;;;;;;3.28;1.30;;;;;;;;;;4937061;29;20694;-63
2023/03/19 00:17:12;;;;;;;3.90;1.27;;;;;;;;;;4953507;29;20221;-63
2023/03/19 00:19:38;;;;;;;2.25;1.30;;;;;;;;;;4953552;29;20210;-63
2023/03/19 00:22:03;;;;;;;2.30;1.30;;;;;;;;;;4953428;29;20357;-62
2023/03/19 00:24:29;;;;;;;3.33;1.40;;;;;;;;;;4953138;29;20206;-63
2023/03/19 00:26:54;;;;;;;2.58;1.13;;;;;;;;;;4961946;28;20209;-63
2023/03/19 00:29:20;;;;;;;1.40;1.08;;;;;;;;;;4938816;28;20230;-63
2023/03/19 00:31:46;;;;;;;4.20;1.27;;;;;;;;;;4936715;28;20488;-63
2023/03/19 00:34:12;;;;;;;3.28;1.38;;;;;;;;;;4936056;28;20471;-63
2023/03/19 00:36:37;;;;;;;3.10;1.52;;;;;;;;;;4943533;28;20221;-63
2023/03/19 00:39:03;;;;;;;1.92;1.20;;;;;;;;;;4942800;28;20218;-62
2023/03/19 00:41:29;;;;;;;3.40;1.60;;;;;;;;;;4926289;28;20245;-62
2023/03/19 00:43:54;;;;;;;3.55;1.67;;;;;;;;;;4963185;28;20225;-62
2023/03/19 00:46:20;;;;;;;2.75;1.70;;;;;;;;;;4943725;28;20575;-63
2023/03/19 00:48:45;;;;;;;3.38;1.70;;;;;;;;;;4944056;28;20303;-63
2023/03/19 00:51:10;;;;;;;3.55;2.10;;;;;;;;;;4938775;28;20321;-63
2023/03/19 00:53:38;;;;;;;4.22;1.80;;;;;;;;;;4935995;28;20559;-63
2023/03/19 00:56:03;;;;;;;3.55;1.52;;;;;;;;;;4936036;28;20793;-63
2023/03/19 00:58:28;;;;;;;3.67;1.45;;;;;;;;;;4940670;28;20222;-62
2023/03/19 01:00:54;;;;;;;2.88;1.30;;;;;;;;;;4942777;28;20210;-63
2023/03/19 01:03:20;;;;;;;3.05;1.42;;;;;;;;;;4943587;28;20227;-63
2023/03/19 01:05:47;;;;;;;2.67;1.40;;;;;;;;;;4943308;28;20237;-63
2023/03/19 01:08:13;;;;;;;0.55;0.50;;;;;;;;;;4942277;28;20685;-62
2023/03/19 01:10:38;;;;;;;2.85;1.50;;;;;;;;;;4943340;28;20257;-62
2023/03/19 01:13:03;;;;;;;3.38;1.35;;;;;;;;;;4940463;28;20238;-62
2023/03/19 01:15:29;;;;;;;1.90;1.02;;;;;;;;;;4935534;28;20679;-62
2023/03/19 01:17:54;;;;;;;4.20;1.60;;;;;;;;;;4936063;28;20215;-62
2023/03/19 01:20:22;;;;;;;3.28;1.58;;;;;;;;;;4937565;28;21135;-63
2023/03/19 01:22:48;;;;;;;2.90;1.60;;;;;;;;;;4942731;28;20782;-62
2023/03/19 01:25:13;;;;;;;4.07;1.80;;;;;;;;;;4942583;28;20757;-62
2023/03/19 01:27:39;;;;;;;3.55;1.60;;;;;;;;;;4942325;28;20219;-62
2023/03/19 01:30:04;;;;;;;2.90;1.70;;;;;;;;;;4942770;28;20672;-62
2023/03/19 01:32:30;;;;;;;2.53;1.42;;;;;;;;;;4942804;28;20692;-62
2023/03/19 01:34:55;;;;;;;3.47;1.55;;;;;;;;;;4942483;28;21041;-62
2023/03/19 01:37:20;;;;;;;2.88;1.50;;;;;;;;;;4935276;28;20215;-62
2023/03/19 01:39:46;;;;;;;2.40;1.50;;;;;;;;;;4935751;28;20209;-62
2023/03/19 01:42:11;;;;;;;3.08;1.58;;;;;;;;;;4934200;28;20244;-62
2023/03/19 01:44:37;;;;;;;2.58;1.55;;;;;;;;;;4942382;28;20214;-62
2023/03/19 01:47:04;;;;;;;2.78;1.70;;;;;;;;;;4942457;28;20226;-61
2023/03/19 01:49:30;;;;;;;3.75;2.17;;;;;;;;;;4943628;28;20624;-62
2023/03/19 01:51:55;;;;;;;3.65;2.08;;;;;;;;;;4944435;28;20218;-62
2023/03/19 01:54:21;;;;;;;2.63;2.00;;;;;;;;;;4930303;28;20258;-62
2023/03/19 01:56:47;;;;;;;3.83;1.63;;;;;;;;;;4924773;28;20214;-62
2023/03/19 01:59:14;;;;;;;3.83;1.90;;;;;;;;;;4939299;28;20684;-62
2023/03/19 02:01:42;;;;;;;4.90;2.03;;;;;;;;;;4953543;28;20221;-62
2023/03/19 02:04:07;;;;;;;3.85;1.85;;;;;;;;;;4935628;28;20268;-62
2023/03/19 02:06:33;;;;;;;4.72;1.90;;;;;;;;;;4941699;28;20210;-62
2023/03/19 02:08:59;;;;;;;4.75;1.90;;;;;;;;;;4944362;28;20749;-62
2023/03/19 02:11:25;;;;;;;3.78;1.90;;;;;;;;;;4960130;28;20234;-62
2023/03/19 02:13:50;;;;;;;2.97;1.65;;;;;;;;;;4961084;28;20213;-62
2023/03/19 02:16:16;;;;;;;2.40;1.70;;;;;;;;;;4943780;28;20214;-62
2023/03/19 02:18:41;;;;;;;3.22;1.80;;;;;;;;;;4960573;28;20221;-62
2023/03/19 02:21:07;;;;;;;4.25;1.90;;;;;;;;;;4940778;28;20316;-62
2023/03/19 02:23:36;;;;;;;3.50;2.00;;;;;;;;;;4954175;28;20229;-62
2023/03/19 02:26:03;;;;;;;3.33;1.90;;;;;;;;;;4916689;28;20225;-62
2023/03/19 02:28:29;;;;;;;4.22;2.00;;;;;;;;;;4959660;28;20293;-62
2023/03/19 02:30:54;;;;;;;4.00;2.20;;;;;;;;;;4936240;29;20307;-62
2023/03/19 02:33:20;;;;;;;4.22;2.38;;;;;;;;;;4932515;29;20229;-62
2023/03/19 02:35:46;;;;;;;4.10;2.60;;;;;;;;;;4935313;29;20219;-62
2023/03/19 02:38:11;;;;;;;3.55;2.60;;;;;;;;;;4949681;28;20206;-62
2023/03/19 02:40:38;;;;;;;5.28;2.92;;;;;;;;;;4950702;29;20739;-62
2023/03/19 02:43:03;;;;;;;6.03;3.20;;;;;;;;;;4950172;28;20215;-62
2023/03/19 02:45:29;;;;;;;4.70;2.80;;;;;;;;;;4951077;28;20217;-62
2023/03/19 02:47:54;;;;;;;4.68;2.63;;;;;;;;;;4951880;28;20221;-62
2023/03/19 02:50:20;;;;;;;5.07;2.70;;;;;;;;;;4951420;28;20765;-62
2023/03/19 02:52:45;;;;;;;4.63;2.58;;;;;;;;;;4950303;28;20211;-62
2023/03/19 02:55:11;;;;;;;3.63;2.67;;;;;;;;;;4932200;29;20262;-62
2023/03/19 02:57:36;;;;;;;5.15;2.70;;;;;;;;;;4932575;29;20219;-62
2023/03/19 03:00:03;;;;;;;4.95;3.10;;;;;;;;;;4931414;29;20327;-62
2023/03/19 03:02:28;;;;;;;5.13;2.97;;;;;;;;;;4932775;29;20695;-62
2023/03/19 03:04:53;;;;;;;5.97;3.28;;;;;;;;;;4934550;29;20226;-62
2023/03/19 03:07:18;;;;;;;4.53;3.58;;;;;;;;;;4935177;29;20249;-62
2023/03/19 03:09:44;;;;;;;4.60;3.40;;;;;;;;;;4936173;29;20214;-62
2023/03/19 03:12:09;;;;;;;6.15;3.45;;;;;;;;;;4935952;29;20235;-62
2023/03/19 03:14:35;;;;;;;4.90;3.17;;;;;;;;;;4935026;29;20660;-62
2023/03/19 03:17:00;;;;;;;4.80;2.88;;;;;;;;;;4936098;29;20618;-62
2023/03/19 03:19:26;;;;;;;5.32;3.17;;;;;;;;;;4935995;29;20231;-62
2023/03/19 03:21:51;;;;;;;5.00;3.40;;;;;;;;;;4935403;29;20250;-62
2023/03/19 03:24:16;;;;;;;4.30;3.10;;;;;;;;;;4935536;29;20667;-62
2023/03/19 03:26:43;;;;;;;4.15;2.60;;;;;;;;;;4943555;28;20213;-62
2023/03/19 03:29:08;;;;;;;5.30;2.88;;;;;;;;;;4945786;28;20207;-62
2023/03/19 03:31:33;;;;;;;5.13;3.20;;;;;;;;;;4957498;28;20690;-62
2023/03/19 03:33:59;;;;;;;3.92;2.70;;;;;;;;;;4966160;28;20218;-62
2023/03/19 03:36:24;;;;;;;3.90;2.97;;;;;;;;;;4947940;28;20662;-62
2023/03/19 03:38:49;;;;;;;6.78;3.60;;;;;;;;;;4962535;28;20205;-62
2023/03/19 03:41:15;;;;;;;5.43;3.20;;;;;;;;;;4972090;28;20210;-63
2023/03/19 03:43:40;;;;;;;6.05;3.25;;;;;;;;;;4973937;28;20280;-63
2023/03/19 03:46:06;;;;;;;6.95;3.30;;;;;;;;;;4973266;28;20300;-62
2023/03/19 03:48:31;;;;;;;5.22;3.20;;;;;;;;;;4973129;28;20214;-62
2023/03/19 03:50:57;;;;;;;4.90;3.67;;;;;;;;;;4973556;28;20768;-62
2023/03/19 03:53:22;;;;;;;5.72;4.05;;;;;;;;;;4973415;28;20292;-62
2023/03/19 03:55:47;;;;;;;7.15;3.83;;;;;;;;;;4955561;28;20265;-62
2023/03/19 03:58:13;;;;;;;5.53;3.53;;;;;;;;;;4973176;28;20276;-62
2023/03/19 04:00:38;;;;;;;7.95;4.90;;;;;;;;;;4973436;28;20214;-62
2023/03/19 04:03:04;;;;;;;7.72;4.00;;;;;;;;;;4972685;28;20221;-62
2023/03/19 04:05:29;;;;;;;6.72;4.00;;;;;;;;;;4973413;28;20264;-62
2023/03/19 04:07:55;;;;;;;8.23;4.18;;;;;;;;;;4956355;28;20206;-62
2023/03/19 04:10:20;;;;;;;6.63;4.70;;;;;;;;;;4954854;28;20229;-62
2023/03/19 04:12:45;;;;;;;5.43;4.32;;;;;;;;;;4973568;28;20213;-62
2023/03/19 04:15:10;;;;;;;6.45;4.07;;;;;;;;;;4972915;28;20225;-62
2023/03/19 04:17:36;;;;;;;6.40;4.70;;;;;;;;;;4971859;28;20267;-62
2023/03/19 04:20:03;;;;;;;5.80;4.78;;;;;;;;;;4972942;28;20217;-63
2023/03/19 04:22:29;;;;;;;9.52;5.05;;;;;;;;;;4973256;28;20214;-63
2023/03/19 04:24:54;;;;;;;8.05;5.00;;;;;;;;;;4972541;28;20213;-63
2023/03/19 04:27:19;;;;;;;8.23;5.05;;;;;;;;;;4959722;28;20229;-62
2023/03/19 04:29:45;;;;;;;6.43;4.70;;;;;;;;;;4957740;28;20236;-63
2023/03/19 04:32:10;;;;;;;7.43;4.55;;;;;;;;;;4971670;28;20638;-63
2023/03/19 04:34:36;;;;;;;6.07;4.20;;;;;;;;;;4973215;28;20670;-63
2023/03/19 04:37:02;;;;;;;4.43;3.22;;;;;;;;;;4972525;28;20217;-63
2023/03/19 04:39:27;;;;;;;5.40;4.20;;;;;;;;;;4961729;28;20620;-63
2023/03/19 04:41:52;;;;;;;6.50;4.28;;;;;;;;;;4936286;29;20697;-63
2023/03/19 04:44:18;;;;;;;9.07;4.47;;;;;;;;;;4953354;29;20210;-63
2023/03/19 04:46:44;;;;;;;6.13;4.32;;;;;;;;;;4952524;29;20580;-62
2023/03/19 04:49:10;;;;;;;8.13;4.70;;;;;;;;;;4947996;28;20316;-63
2023/03/19 04:51:35;;;;;;;7.85;5.78;;;;;;;;;;4942879;28;20769;-62
2023/03/19 04:54:00;;;;;;;6.18;4.93;;;;;;;;;;4943546;28;20222;-63
2023/03/19 04:56:26;;;;;;;7.88;5.50;;;;;;;;;;4943399;28;20234;-63
2023/03/19 04:58:52;;;;;;;7.43;6.03;;;;;;;;;;4961805;28;20810;-63
2023/03/19 05:01:17;;;;;;;8.63;5.65;;;;;;;;;;4962238;28;20606;-62
2023/03/19 05:03:43;;;;;;;6.85;5.30;;;;;;;;;;4942121;28;20757;-63
2023/03/19 05:06:08;;;;;;;8.00;5.32;;;;;;;;;;4945236;28;20241;-63
2023/03/19 05:08:33;;;;;;;6.55;5.13;;;;;;;;;;4935990;28;20214;-63
2023/03/19 05:10:59;;;;;;;8.13;6.03;;;;;;;;;;4938715;28;20241;-63
2023/03/19 05:13:24;;;;;;;10.10;7.78;;;;;;;;;;4942219;28;20246;-63
2023/03/19 05:15:51;;;;;;;12.35;9.48;;;;;;;;;;4943482;28;20687;-63
2023/03/19 05:18:16;;;;;;;8.80;7.20;;;;;;;;;;4961223;28;20312;-63
2023/03/19 05:20:41;;;;;;;8.75;6.75;;;;;;;;;;4961769;28;20217;-63
2023/03/19 05:23:07;;;;;;;9.82;5.78;;;;;;;;;;4953424;28;20599;-62
2023/03/19 05:25:34;;;;;;;9.32;6.72;;;;;;;;;;4942494;28;20301;-63
2023/03/19 05:27:59;;;;;;;9.70;6.32;;;;;;;;;;4935841;28;20226;-63
2023/03/19 05:30:25;;;;;;;8.32;6.10;;;;;;;;;;4935075;28;20578;-63
2023/03/19 05:32:51;;;;;;;8.80;6.45;;;;;;;;;;4936147;28;20218;-63
2023/03/19 05:35:17;;;;;;;9.15;6.90;;;;;;;;;;4940769;28;20682;-63
2023/03/19 05:37:42;;;;;;;9.77;6.82;;;;;;;;;;4943010;28;20666;-63
2023/03/19 05:40:08;;;;;;;8.73;5.93;;;;;;;;;;4943202;28;20218;-63
2023/03/19 05:42:33;;;;;;;8.35;6.07;;;;;;;;;;4942301;28;20207;-63
2023/03/19 05:44:58;;;;;;;10.93;7.25;;;;;;;;;;4961861;28;20221;-63
2023/03/19 05:47:24;;;;;;;10.10;6.45;;;;;;;;;;4960986;28;20218;-63
2023/03/19 05:49:49;;;;;;;10.57;7.60;;;;;;;;;;4955675;28;20229;-63
2023/03/19 05:52:14;;;;;;;9.50;7.40;;;;;;;;;;4953679;28;20226;-63
2023/03/19 05:54:40;;;;;;;12.48;7.95;;;;;;;;;;4954540;28;20309;-63
2023/03/19 05:57:06;;;;;;;8.45;6.32;;;;;;;;;;4951479;28;20214;-63
2023/03/19 05:59:31;;;;;;;10.35;7.50;;;;;;;;;;4942907;28;20670;-63
2023/03/19 06:01:57;;;;;;;10.27;8.18;;;;;;;;;;4942240;28;20277;-63
2023/03/19 06:04:22;;;;;;;10.75;8.50;;;;;;;;;;4942037;28;20741;-63
2023/03/19 06:06:47;;;;;;;8.95;7.00;;;;;;;;;;4961681;28;20635;-63
2023/03/19 06:09:13;;;;;;;10.25;7.15;;;;;;;;;;4960256;28;20336;-63
2023/03/19 06:11:39;;;;;;;9.90;7.38;;;;;;;;;;4958089;28;20250;-63
2023/03/19 06:14:04;;;;;;;9.90;6.70;;;;;;;;;;4953646;28;20796;-63
2023/03/19 06:16:30;;;;;;;10.10;7.75;;;;;;;;;;4953329;28;20302;-63
2023/03/19 06:18:55;;;;;;;10.30;7.93;;;;;;;;;;4957020;28;20224;-63
2023/03/19 06:21:21;;;;;;;11.00;8.10;;;;;;;;;;4961214;28;20680;-63
2023/03/19 06:23:46;;;;;;;12.38;8.85;;;;;;;;;;4960710;28;20221;-63
2023/03/19 06:26:11;;;;;;;12.13;9.48;;;;;;;;;;4957591;28;20566;-63
2023/03/19 06:28:36;;;;;;;11.32;9.63;;;;;;;;;;4942591;28;20218;-63
2023/03/19 06:31:02;;;;;;;14.40;11.13;;;;;;;;;;4941173;28;20242;-63
2023/03/19 06:33:30;;;;;;;15.20;11.85;;;;;;;;;;4960310;28;20229;-63
2023/03/19 06:35:56;;;;;;;13.95;11.30;;;;;;;;;;4954048;28;20304;-63
2023/03/19 06:38:21;;;;;;;15.00;11.30;;;;;;;;;;4951242;28;20463;-63
2023/03/19 06:40:47;;;;;;;14.45;10.18;;;;;;;;;;4939036;28;20319;-63
2023/03/19 06:43:12;;;;;;;13.73;10.80;;;;;;;;;;4945530;28;20712;-63
2023/03/19 06:45:38;;;;;;;17.75;11.95;;;;;;;;;;4927996;28;20317;-63
2023/03/19 06:48:03;;;;;;;15.45;13.18;;;;;;;;;;4945350;28;20230;-62
2023/03/19 06:50:28;;;;;;;15.88;11.90;;;;;;;;;;4945848;28;20619;-63
2023/03/19 06:52:54;;;;;;;16.10;12.02;;;;;;;;;;4945278;28;20211;-63
2023/03/19 06:55:19;;;;;;;14.20;11.38;;;;;;;;;;4953294;28;20313;-62
2023/03/19 06:57:50;;;;;;;12.40;10.15;;;;;;;;;;4939960;28;20533;-62
2023/03/19 07:00:17;;;;;;;13.93;11.80;;;;;;;;;;4955393;28;20426;-62
2023/03/19 07:02:42;;;;;;;14.20;12.27;;;;;;;;;;4956700;28;20430;-63
2023/03/19 07:05:08;;;;;;;14.80;11.97;;;;;;;;;;4962446;28;20525;-63
2023/03/19 07:07:33;;;;;;;16.65;12.60;;;;;;;;;;4960987;28;20211;-65
2023/03/19 07:09:58;;;;;;;16.83;11.95;;;;;;;;;;4964355;28;20222;-65
2023/03/19 07:12:26;;;;;;;12.23;10.00;;;;;;;;;;4946048;28;20711;-64
2023/03/19 07:14:52;;;;;;;13.90;10.45;;;;;;;;;;4963658;28;20551;-64
2023/03/19 07:17:17;;;;;;;16.40;11.27;;;;;;;;;;4947322;28;21263;-64
2023/03/19 07:19:42;;;;;;;14.32;10.13;;;;;;;;;;4941254;28;20207;-64
2023/03/19 07:22:08;;;;;;;12.02;9.85;;;;;;;;;;4956533;28;20312;-64
2023/03/19 07:24:33;;;;;;;11.82;10.13;;;;;;;;;;4956310;28;20249;-64
2023/03/19 07:26:58;;;;;;;12.73;11.00;;;;;;;;;;4950611;28;20206;-64
2023/03/19 07:29:24;;;;;;;14.55;10.32;;;;;;;;;;4944958;28;20222;-64
2023/03/19 07:31:49;;;;;;;12.57;9.43;;;;;;;;;;4945114;28;20238;-63
2023/03/19 07:34:15;;;;;;;13.63;10.53;;;;;;;;;;4943727;28;20779;-64
2023/03/19 07:36:40;;;;;;;15.07;11.35;;;;;;;;;;4944990;28;20301;-63
2023/03/19 07:39:05;;;;;;;13.70;10.70;;;;;;;;;;4944404;28;20211;-63
2023/03/19 07:41:31;;;;;;;13.75;10.10;;;;;;;;;;4942983;28;20269;-64
2023/03/19 07:43:56;;;;;;;14.73;10.82;;;;;;;;;;4937952;28;20210;-62
2023/03/19 07:46:21;;;;;;;13.85;10.80;;;;;;;;;;4937335;28;20863;-64
2023/03/19 07:48:46;;;;;;;11.32;8.52;;;;;;;;;;4937937;28;20210;-64
2023/03/19 07:51:12;;;;;;;11.95;8.73;;;;;;;;;;4943050;28;20266;-64
2023/03/19 07:53:37;;;;;;;12.07;8.48;;;;;;;;;;4951697;28;20206;-63
2023/03/19 07:56:02;;;;;;;12.43;8.65;;;;;;;;;;4961941;28;20231;-63
2023/03/19 07:58:28;;;;;;;11.07;8.38;;;;;;;;;;4972485;28;20547;-63
2023/03/19 08:00:53;;;;;;;12.27;9.23;;;;;;;;;;4973677;28;20289;-64
2023/03/19 08:03:18;;;;;;;12.25;9.50;;;;;;;;;;4955174;28;20210;-63
2023/03/19 08:05:43;;;;;;;12.65;9.00;;;;;;;;;;4973579;28;20218;-63
2023/03/19 08:08:09;;;;;;;10.18;8.57;;;;;;;;;;4972938;28;20210;-64
2023/03/19 08:10:34;;;;;;;9.13;7.68;;;;;;;;;;4972644;28;20270;-64
2023/03/19 08:13:00;;;;;;;10.55;7.78;;;;;;;;;;4973644;28;20221;-64
2023/03/19 08:15:25;;;;;;;10.30;7.57;;;;;;;;;;4972933;28;20715;-63
2023/03/19 08:17:58;;;;;;;9.18;7.35;;;;;;;;;;4972580;28;20213;-64
2023/03/19 08:20:23;;;;;;;9.82;7.57;;;;;;;;;;4972723;28;20657;-64
2023/03/19 08:22:48;;;;;;;10.23;7.72;;;;;;;;;;4972449;28;20240;-64
2023/03/19 08:25:14;;;;;;;9.02;6.80;;;;;;;;;;4972859;28;20217;-64
2023/03/19 08:27:40;;;;;;;9.98;6.88;;;;;;;;;;4973123;28;20237;-65
2023/03/19 08:30:06;;;;;;;8.55;6.60;;;;;;;;;;4965060;28;20234;-64
2023/03/19 08:32:31;;;;;;;8.93;6.63;;;;;;;;;;4953853;29;20726;-64
2023/03/19 08:34:56;;;;;;;10.07;6.95;;;;;;;;;;4953663;29;20717;-64
2023/03/19 08:37:22;;;;;;;10.45;6.65;;;;;;;;;;4952099;29;20242;-64
2023/03/19 08:39:49;;;;;;;9.45;6.53;;;;;;;;;;4961018;28;20297;-63
2023/03/19 08:42:15;;;;;;;8.90;6.28;;;;;;;;;;4952967;28;20214;-63
2023/03/19 08:44:40;;;;;;;8.18;5.97;;;;;;;;;;4953077;28;20214;-63
2023/03/19 08:47:05;;;;;;;10.32;6.38;;;;;;;;;;4952965;28;20261;-63
2023/03/19 08:49:30;;;;;;;7.78;6.05;;;;;;;;;;4953555;28;20281;-64
2023/03/19 08:51:56;;;;;;;9.20;6.15;;;;;;;;;;4952249;28;20254;-63
2023/03/19 08:54:21;;;;;;;8.85;5.78;;;;;;;;;;4960651;28;20304;-63
2023/03/19 08:56:46;;;;;;;7.93;5.93;;;;;;;;;;4970445;28;20673;-63
2023/03/19 08:59:12;;;;;;;10.77;6.38;;;;;;;;;;4966534;28;20301;-63
2023/03/19 09:01:37;;;;;;;9.88;5.95;;;;;;;;;;4966443;28;20210;-63
2023/03/19 09:04:02;;;;;;;6.75;5.10;;;;;;;;;;4957081;28;20626;-63
2023/03/19 09:06:28;;;;;;;8.20;5.20;;;;;;;;;;4955333;28;20289;-63
2023/03/19 09:08:53;;;;;;;11.15;5.35;;;;;;;;;;4951772;29;20286;-63
2023/03/19 09:11:18;;;;;;;8.23;5.72;;;;;;;;;;4952472;29;20581;-63
2023/03/19 09:13:44;;;;;;;11.93;6.15;;;;;;;;;;4952290;29;20749;-63
2023/03/19 09:16:09;;;;;;;8.88;5.85;;;;;;;;;;4952625;29;20207;-63
2023/03/19 09:18:35;;;;;;;10.35;5.85;;;;;;;;;;4952935;29;20249;-63
2023/03/19 09:21:00;;;;;;;10.77;5.93;;;;;;;;;;4952008;29;20218;-64
2023/03/19 09:23:25;;;;;;;9.43;5.93;;;;;;;;;;4952342;29;20210;-63
2023/03/19 09:25:51;;;;;;;9.25;6.15;;;;;;;;;;4952627;28;20206;-64
2023/03/19 09:28:16;;;;;;;7.93;5.32;;;;;;;;;;4965959;28;20226;-63
2023/03/19 09:30:42;;;;;;;10.95;5.90;;;;;;;;;;4960325;28;20230;-63
2023/03/19 09:33:07;;;;;;;8.00;5.47;;;;;;;;;;4951420;29;20709;-63
2023/03/19 09:35:32;;;;;;;8.88;6.00;;;;;;;;;;4952697;29;20250;-63
2023/03/19 09:37:58;;;;;;;7.35;4.93;;;;;;;;;;4952267;29;20691;-63
2023/03/19 09:40:24;;;;;;;10.23;5.72;;;;;;;;;;4969405;28;20576;-63
2023/03/19 09:42:50;;;;;;;11.10;5.93;;;;;;;;;;4971943;28;20218;-63
2023/03/19 09:45:16;;;;;;;9.35;6.10;;;;;;;;;;4971347;28;20759;-63
2023/03/19 09:47:42;;;;;;;9.73;6.07;;;;;;;;;;4953775;28;20692;-63
2023/03/19 09:50:14;;;;;;;10.68;6.05;;;;;;;;;;4971311;28;20228;-63
2023/03/19 09:52:40;;;;;;;9.70;5.70;;;;;;;;;;4954229;28;20301;-63
2023/03/19 09:55:15;;;;;;;8.75;5.70;;;;;;;;;;4970477;28;20214;-63
2023/03/19 09:57:40;;;;;;;8.90;6.47;;;;;;;;;;4954415;28;20568;-63
2023/03/19 10:00:12;;;;;;;10.05;6.57;;;;;;;;;;4971078;28;20225;-63
2023/03/19 10:02:40;;;;;;;10.40;6.80;;;;;;;;;;4953688;28;20284;-63
2023/03/19 10:05:17;;;;;;;21.58;8.63;;;;;;;;;;4952609;28;20261;-63
2023/03/19 10:07:56;;;;;;;8.55;7.00;;;;;;;;;;4952200;28;20326;-63
2023/03/19 10:10:40;;;;;;;10.18;7.40;;;;;;;;;;4950815;28;20234;-63
2023/03/19 10:13:17;;;;;;;12.23;7.70;;;;;;;;;;4934691;28;20230;-63
2023/03/19 10:15:43;;;;;;;9.98;6.93;;;;;;;;;;4934153;29;20214;-63
2023/03/19 10:18:10;;;;;;;9.32;6.60;;;;;;;;;;4951680;28;20222;-63
2023/03/19 10:20:35;;;;;;;11.07;6.80;;;;;;;;;;4952101;28;20731;-63
2023/03/19 10:23:07;;;;;;;9.15;6.85;;;;;;;;;;4950966;28;20222;-63
2023/03/19 10:25:33;;;;;;;9.02;7.10;;;;;;;;;;4951920;28;20720;-63
2023/03/19 10:28:00;;;;;;;8.85;6.22;;;;;;;;;;4935098;29;20223;-63
2023/03/19 10:30:25;;;;;;;9.55;5.65;;;;;;;;;;4943007;28;20249;-63
2023/03/19 10:32:53;;;;;;;10.02;5.90;;;;;;;;;;4942989;28;20595;-63
2023/03/19 10:35:22;;;;;;;8.68;5.82;;;;;;;;;;4921151;28;20665;-63
2023/03/19 10:37:47;;;;;;;9.02;5.85;;;;;;;;;;4921228;28;20553;-63
2023/03/19 10:40:16;;;;;;;8.85;5.50;;;;;;;;;;4924781;28;20228;-63
2023/03/19 10:42:48;;;;;;;9.70;6.07;;;;;;;;;;4929190;28;20210;-63
2023/03/19 10:45:22;;;;;;;8.50;6.60;;;;;;;;;;4928019;28;20206;-63
2023/03/19 10:47:47;;;;;;;9.23;6.70;;;;;;;;;;4929092;28;20202;-63
2023/03/19 10:50:15;;;;;;;9.77;8.40;;;;;;;;;;4928380;28;20296;-63
2023/03/19 10:52:40;;;;;;;10.18;7.63;;;;;;;;;;4928916;28;20233;-63
2023/03/19 10:55:12;;;;;;;10.15;7.78;;;;;;;;;;4926890;28;20214;-63
2023/03/19 10:57:37;;;;;;;11.43;8.05;;;;;;;;;;4937797;28;20226;-63
2023/03/19 11:00:14;;;;;;;9.93;7.20;;;;;;;;;;4921125;28;20556;-63
2023/03/19 11:02:40;;;;;;;11.18;7.40;;;;;;;;;;4959920;28;20209;-63
2023/03/19 11:05:07;;;;;;;8.65;7.07;;;;;;;;;;4945179;28;20210;-63
2023/03/19 11:07:33;;;;;;;9.50;7.50;;;;;;;;;;4956130;28;20531;-63
2023/03/19 11:09:58;;;;;;;13.02;9.02;;;;;;;;;;4946878;28;20764;-62
2023/03/19 11:12:26;;;;;;;9.60;8.00;;;;;;;;;;4946332;28;20313;-62
2023/03/19 11:14:51;;;;;;;12.02;8.25;;;;;;;;;;4947465;28;20218;-62
2023/03/19 11:17:19;;;;;;;12.65;8.63;;;;;;;;;;4947075;28;20222;-62
2023/03/19 11:20:03;;;;;;;13.10;9.77;;;;;;;;;;4956200;28;20221;-62
2023/03/19 11:22:31;;;;;;;12.50;9.57;;;;;;;;;;4957386;28;20214;-62
2023/03/19 11:25:00;;;;;;;10.77;9.63;;;;;;;;;;4941715;28;20210;-62
2023/03/19 11:27:27;;;;;;;12.63;10.02;;;;;;;;;;4951339;28;20714;-62
2023/03/19 11:29:52;;;;;;;11.70;8.68;;;;;;;;;;4949709;28;20234;-62
2023/03/19 11:32:39;;;;;;;11.98;9.38;;;;;;;;;;4948861;28;20257;-62
2023/03/19 11:35:06;;;;;;;13.02;9.32;;;;;;;;;;4948800;28;20690;-62
2023/03/19 11:37:48;;;;;;;11.40;9.30;;;;;;;;;;4949268;28;20571;-62
2023/03/19 11:40:15;;;;;;;11.80;10.20;;;;;;;;;;4930244;28;20306;-62
2023/03/19 11:42:41;;;;;;;10.27;8.43;;;;;;;;;;4941806;28;20210;-62
2023/03/19 11:45:09;;;;;;;12.65;9.15;;;;;;;;;;4941361;28;20300;-62
2023/03/19 11:47:35;;;;;;;11.73;8.98;;;;;;;;;;4925794;28;20673;-62
2023/03/19 11:50:00;;;;;;;13.82;9.20;;;;;;;;;;4949008;28;20284;-62
2023/03/19 11:52:28;;;;;;;13.73;10.05;;;;;;;;;;4949248;28;20227;-62
2023/03/19 11:54:55;;;;;;;9.63;8.20;;;;;;;;;;4931013;28;20230;-63
2023/03/19 11:57:32;;;;;;;12.70;9.70;;;;;;;;;;4948115;28;20222;-63
2023/03/19 12:00:02;;;;;;;11.73;8.88;;;;;;;;;;4950178;28;20239;-63
2023/03/19 12:02:41;;;;;;;10.70;7.25;;;;;;;;;;4949222;28;20681;-64
2023/03/19 12:05:11;;;;;;;10.65;7.93;;;;;;;;;;4957629;28;20222;-63
2023/03/19 12:07:36;;;;;;;12.30;8.30;;;;;;;;;;4926093;28;20210;-64
2023/03/19 12:10:11;;;;;;;10.13;8.40;;;;;;;;;;4942048;28;20610;-63
2023/03/19 12:12:40;;;;;;;11.55;8.77;;;;;;;;;;4948619;28;20713;-63
2023/03/19 12:15:10;;;;;;;13.65;8.77;;;;;;;;;;4947602;28;20269;-63
2023/03/19 12:17:42;;;;;;;14.45;9.70;;;;;;;;;;4931498;28;20698;-63
2023/03/19 12:20:10;;;;;;;15.30;9.88;;;;;;;;;;4948196;28;20332;-63
2023/03/19 12:22:52;;;;;;;15.35;9.93;;;;;;;;;;4947682;28;20698;-63
2023/03/19 12:25:18;;;;;;;13.98;11.13;;;;;;;;;;4947602;28;20309;-63
2023/03/19 12:27:50;;;;;;;13.50;11.73;;;;;;;;;;4940237;28;20377;-63
2023/03/19 12:30:29;;;;;;;16.90;12.88;;;;;;;;;;4939526;28;20238;-63
2023/03/19 12:32:54;;;;;;;20.23;12.98;;;;;;;;;;4925476;28;20305;-63
2023/03/19 12:35:22;;;;;;;16.70;13.07;;;;;;;;;;4947988;28;20345;-63
2023/03/19 12:37:47;;;;;;;16.80;12.30;;;;;;;;;;4929964;28;20210;-63
2023/03/19 12:40:16;;;;;;;16.75;12.13;;;;;;;;;;4947610;28;20250;-63
2023/03/19 12:42:42;;;;;;;15.82;11.02;;;;;;;;;;4930668;28;20333;-63
2023/03/19 12:45:14;;;;;;;15.75;10.85;;;;;;;;;;4929812;28;20313;-63
2023/03/19 12:47:40;;;;;;;12.90;9.27;;;;;;;;;;4930638;28;20214;-63
2023/03/19 12:50:06;;;;;;;15.18;10.57;;;;;;;;;;4922121;28;20221;-63
2023/03/19 12:52:33;;;;;;;12.13;9.10;;;;;;;;;;4940451;28;20230;-63
2023/03/19 12:55:01;;;;;;;13.27;8.20;;;;;;;;;;4924696;28;20612;-63
2023/03/19 12:57:30;;;;;;;14.93;9.80;;;;;;;;;;4928590;28;20686;-63
2023/03/19 12:59:58;;;;;;;12.90;9.10;;;;;;;;;;4930900;28;20257;-63
2023/03/19 13:02:25;;;;;;;17.17;9.63;;;;;;;;;;4947067;28;20225;-63
2023/03/19 13:04:54;;;;;;;13.70;9.65;;;;;;;;;;4947307;28;20210;-63
2023/03/19 13:07:21;;;;;;;14.95;9.52;;;;;;;;;;4929895;28;20281;-63
2023/03/19 13:09:58;;;;;;;12.88;7.95;;;;;;;;;;4930679;28;20241;-63
2023/03/19 13:12:24;;;;;;;13.15;8.20;;;;;;;;;;4922874;28;20888;-63
2023/03/19 13:14:53;;;;;;;14.70;9.48;;;;;;;;;;4939941;28;20219;-63
2023/03/19 13:17:24;;;;;;;16.05;9.95;;;;;;;;;;4933535;28;20237;-63
2023/03/19 13:19:52;;;;;;;17.92;9.15;;;;;;;;;;4952149;29;20606;-63
2023/03/19 13:22:21;;;;;;;13.30;8.60;;;;;;;;;;4952416;29;20697;-63
2023/03/19 13:24:47;;;;;;;10.85;6.78;;;;;;;;;;4952949;29;20218;-63
2023/03/19 13:27:19;;;;;;;13.07;6.18;;;;;;;;;;4951342;29;20663;-63
2023/03/19 13:29:54;;;;;;;9.80;4.40;;;;;;;;;;4939416;28;20205;-63
2023/03/19 13:32:29;;;;;;;9.82;4.50;;;;;;;;;;4953402;28;20240;-63
2023/03/19 13:35:13;;;;;;;9.20;4.50;;;;;;;;;;4972112;28;20208;-63
2023/03/19 13:37:40;;;;;;;11.23;5.72;;;;;;;;;;4971563;28;20210;-63
2023/03/19 13:40:06;;;;;;;11.77;5.82;;;;;;;;;;4937896;29;20210;-63
2023/03/19 13:42:40;;;;;;;9.80;4.72;;;;;;;;;;4969959;28;20205;-63
2023/03/19 13:45:26;;;;;;;9.65;4.80;;;;;;;;;;4971323;28;20210;-63
2023/03/19 13:47:51;;;;;;;10.23;5.47;;;;;;;;;;4970812;28;20629;-63
2023/03/19 13:50:18;;;;;;;9.43;5.45;;;;;;;;;;4970478;28;20685;-63
2023/03/19 13:52:44;;;;;;;11.40;5.60;;;;;;;;;;4971731;28;20256;-63
2023/03/19 13:55:22;;;;;;;10.80;5.72;;;;;;;;;;4970549;28;20527;-64
2023/03/19 13:58:00;;;;;;;10.63;5.80;;;;;;;;;;4971706;28;20209;-64
2023/03/19 14:00:41;;;;;;;11.50;5.82;;;;;;;;;;4970558;28;20217;-64
2023/03/19 14:03:14;;;;;;;14.95;7.00;;;;;;;;;;4971110;28;20209;-65
2023/03/19 14:05:40;;;;;;;12.98;6.40;;;;;;;;;;4953468;28;20209;-64
2023/03/19 14:08:13;;;;;;;10.90;5.97;;;;;;;;;;4934431;29;20580;-64
2023/03/19 14:10:44;;;;;;;11.38;6.35;;;;;;;;;;4934912;29;20675;-64
2023/03/19 14:13:14;;;;;;;11.75;5.90;;;;;;;;;;4934624;29;20372;-64
2023/03/19 14:15:40;;;;;;;9.90;6.00;;;;;;;;;;4934137;29;20243;-64
2023/03/19 14:18:12;;;;;;;8.18;4.30;;;;;;;;;;4960962;28;20241;-64
2023/03/19 14:20:49;;;;;;;7.95;4.43;;;;;;;;;;4951649;28;20221;-64
2023/03/19 14:23:19;;;;;;;11.23;5.35;;;;;;;;;;4969365;28;20237;-64
2023/03/19 14:25:52;;;;;;;12.10;6.03;;;;;;;;;;4935254;29;20235;-64
2023/03/19 14:28:18;;;;;;;11.20;5.90;;;;;;;;;;4938542;29;20348;-64
2023/03/19 14:30:45;;;;;;;11.20;5.60;;;;;;;;;;4931301;29;20688;-65
2023/03/19 14:33:14;;;;;;;10.13;5.30;;;;;;;;;;4932646;29;20227;-64